createdAt,value
2019-02-16T00:01:11.876Z,435.20
2019-02-16T00:03:39.705Z,403.23
2019-02-16T00:06:07.417Z,418.83
2019-02-16T00:08:35.125Z,398.23
2019-02-16T00:11:02.732Z,397.93
2019-02-16T00:13:31.550Z,394.27
2019-02-16T00:15:59.198Z,408.57
2019-02-16T00:18:26.830Z,405.90
2019-02-16T00:21:03.450Z,392.73
2019-02-16T00:23:25.176Z,418.43
2019-02-16T00:25:52.714Z,402.07
2019-02-16T00:28:23.245Z,389.73
2019-02-16T00:30:50.788Z,381.87
2019-02-16T00:33:18.445Z,399.00
2019-02-16T00:35:46.186Z,381.17
2019-02-16T00:38:13.859Z,432.73
2019-02-16T00:40:41.559Z,402.47
2019-02-16T00:43:09.471Z,390.50
2019-02-16T00:45:37.494Z,413.07
2019-02-16T00:48:05.119Z,408.20
2019-02-16T00:50:33.060Z,409.67
2019-02-16T00:53:00.650Z,418.47
2019-02-16T00:55:28.803Z,417.53
2019-02-16T00:57:56.179Z,405.47
2019-02-16T01:00:24.099Z,394.00
2019-02-16T01:02:51.539Z,393.37
2019-02-16T01:05:19.059Z,425.90
2019-02-16T01:07:46.606Z,386.87
2019-02-16T01:10:14.370Z,371.93
2019-02-16T01:12:41.910Z,388.43
2019-02-16T01:15:10.133Z,426.37
2019-02-16T01:17:37.770Z,410.83
2019-02-16T01:20:10.375Z,367.70
2019-02-16T01:22:37.966Z,378.67
2019-02-16T01:25:05.905Z,388.83
2019-02-16T01:27:33.459Z,396.50
2019-02-16T01:30:01.200Z,398.37
2019-02-16T01:32:28.667Z,402.60
2019-02-16T01:34:59.017Z,389.50
2019-02-16T01:37:26.631Z,391.33
2019-02-16T01:39:54.132Z,365.17
2019-02-16T01:42:21.829Z,384.37
2019-02-16T01:44:51.330Z,370.20
2019-02-16T01:47:18.939Z,419.20
2019-02-16T01:49:46.827Z,369.73
2019-02-16T01:52:14.398Z,430.83
2019-02-16T01:54:43.132Z,363.80
2019-02-16T01:57:10.723Z,400.47
2019-02-16T01:59:38.319Z,366.40
2019-02-16T02:02:05.929Z,390.23
2019-02-16T02:04:33.299Z,379.23
2019-02-16T02:07:00.699Z,394.93
2019-02-16T02:09:28.337Z,385.20
2019-02-16T02:11:55.807Z,378.53
2019-02-16T02:14:23.316Z,377.17
2019-02-16T02:16:50.732Z,411.27
2019-02-16T02:19:18.397Z,372.33
2019-02-16T02:21:45.909Z,391.47
2019-02-16T02:24:14.745Z,417.87
2019-02-16T02:26:43.679Z,396.03
2019-02-16T02:29:11.046Z,356.07
2019-02-16T02:31:38.581Z,405.33
2019-02-16T02:34:06.074Z,375.17
2019-02-16T02:36:33.589Z,405.60
2019-02-16T02:39:00.989Z,363.57
2019-02-16T02:41:28.434Z,414.10
2019-02-16T02:43:56.056Z,364.13
2019-02-16T02:46:23.625Z,397.60
2019-02-16T02:48:51.141Z,387.13
2019-02-16T02:51:18.784Z,381.03
2019-02-16T02:53:46.229Z,373.40
2019-02-16T02:56:13.856Z,395.27
2019-02-16T02:58:41.343Z,366.23
2019-02-16T03:01:08.839Z,371.53
2019-02-16T03:03:36.645Z,367.37
2019-02-16T03:06:04.153Z,362.33
2019-02-16T03:08:34.073Z,393.60
2019-02-16T03:11:03.235Z,379.00
2019-02-16T03:13:31.172Z,425.23
2019-02-16T03:15:58.980Z,372.77
2019-02-16T03:18:26.828Z,385.10
2019-02-16T03:20:55.146Z,371.80
2019-02-16T03:23:22.568Z,377.43
2019-02-16T03:26:04.845Z,375.30
2019-02-16T03:28:47.932Z,353.40
2019-02-16T03:32:07.005Z,370.37
2019-02-16T03:34:42.272Z,371.10
2019-02-16T03:37:56.869Z,410.00
2019-02-16T03:40:24.903Z,351.30
2019-02-16T03:42:52.390Z,372.20
2019-02-16T03:45:19.812Z,370.27
2019-02-16T03:47:47.335Z,344.47
2019-02-16T03:50:14.842Z,363.23
2019-02-16T03:52:42.222Z,345.10
2019-02-16T03:55:09.756Z,379.00
2019-02-16T03:57:37.303Z,346.53
2019-02-16T04:00:06.223Z,372.90
2019-02-16T04:02:33.688Z,352.60
2019-02-16T04:05:01.310Z,421.97
2019-02-16T04:07:30.754Z,381.13
2019-02-16T04:09:58.301Z,417.80
2019-02-16T04:12:26.792Z,384.27
2019-02-16T04:14:54.356Z,380.47
2019-02-16T04:17:25.067Z,406.43
2019-02-16T04:19:52.670Z,387.93
2019-02-16T04:22:24.513Z,391.60
2019-02-16T04:24:49.671Z,379.43
2019-02-16T04:27:17.647Z,412.27
2019-02-16T04:29:45.365Z,383.63
2019-02-16T04:32:12.789Z,405.40
2019-02-16T04:34:40.240Z,392.10
2019-02-16T04:37:07.558Z,406.33
2019-02-16T04:39:35.021Z,368.37
2019-02-16T04:42:02.660Z,431.60
2019-02-16T04:44:30.104Z,362.70
2019-02-16T04:46:57.847Z,405.83
2019-02-16T04:49:25.377Z,374.57
2019-02-16T04:51:54.011Z,395.20
2019-02-16T04:54:21.528Z,358.67
2019-02-16T04:56:49.173Z,408.10
2019-02-16T04:59:16.634Z,389.67
2019-02-16T05:01:44.300Z,402.73
2019-02-16T05:04:11.743Z,390.63
2019-02-16T05:06:39.340Z,419.30
2019-02-16T05:09:07.094Z,447.43
2019-02-16T05:11:34.530Z,416.90
2019-02-16T05:14:01.997Z,398.17
2019-02-16T05:16:29.665Z,410.37
2019-02-16T05:18:57.166Z,432.20
2019-02-16T05:21:24.687Z,415.80
2019-02-16T05:23:52.570Z,384.90
2019-02-16T05:26:20.108Z,416.73
2019-02-16T05:28:47.736Z,400.97
2019-02-16T05:31:15.346Z,412.33
2019-02-16T05:33:43.202Z,425.30
2019-02-16T05:36:10.738Z,420.00
2019-02-16T05:38:38.515Z,416.57
2019-02-16T05:41:07.811Z,377.27
2019-02-16T05:43:35.290Z,399.20
2019-02-16T05:46:03.799Z,395.03
2019-02-16T05:48:31.187Z,392.43
2019-02-16T05:50:58.666Z,433.83
2019-02-16T05:53:26.008Z,401.37
2019-02-16T05:55:54.271Z,405.23
2019-02-16T05:58:21.728Z,408.17
2019-02-16T06:00:49.115Z,405.37
2019-02-16T06:03:16.874Z,405.27
2019-02-16T06:05:44.225Z,407.27
2019-02-16T06:08:11.673Z,411.73
2019-02-16T06:10:39.321Z,403.67
2019-02-16T06:13:06.801Z,409.40
2019-02-16T06:15:34.160Z,409.57
2019-02-16T06:18:01.585Z,414.60
2019-02-16T06:20:29.068Z,404.77
2019-02-16T06:23:03.829Z,436.00
2019-02-16T06:25:27.079Z,424.10
2019-02-16T06:27:54.748Z,438.43
2019-02-16T06:30:22.368Z,405.70
2019-02-16T06:32:55.016Z,437.47
2019-02-16T06:35:28.230Z,406.20
2019-02-16T06:38:01.079Z,421.73
2019-02-16T06:40:30.517Z,407.73
2019-02-16T06:43:01.839Z,409.17
2019-02-16T06:45:32.474Z,432.33
2019-02-16T06:48:00.616Z,421.07
2019-02-16T06:50:37.048Z,426.07
2019-02-16T06:53:12.595Z,417.97
2019-02-16T06:55:51.753Z,420.27
2019-02-16T06:58:19.403Z,404.60
2019-02-16T07:00:46.926Z,430.47
2019-02-16T07:03:14.791Z,420.53
2019-02-16T07:05:42.470Z,424.73
2019-02-16T07:08:09.877Z,408.57
2019-02-16T07:10:37.650Z,433.87
2019-02-16T07:13:06.801Z,401.50
2019-02-16T07:15:34.378Z,445.73
2019-02-16T07:18:27.728Z,417.27
2019-02-16T07:21:01.574Z,445.37
2019-02-16T07:23:30.021Z,407.30
2019-02-16T07:25:57.643Z,403.73
2019-02-16T07:28:25.077Z,401.17
2019-02-16T07:30:52.656Z,400.43
2019-02-16T07:33:20.236Z,394.87
2019-02-16T07:35:47.769Z,392.30
2019-02-16T07:38:16.511Z,400.53
2019-02-16T07:40:43.910Z,394.00
2019-02-16T07:43:31.112Z,400.33
2019-02-16T07:46:10.803Z,408.80
2019-02-16T07:49:09.633Z,387.77
2019-02-16T07:51:49.368Z,421.23
2019-02-16T07:54:31.115Z,382.53
2019-02-16T07:57:27.193Z,414.53
2019-02-16T08:00:09.800Z,382.60
2019-02-16T08:02:55.295Z,383.57
2019-02-16T08:05:51.183Z,385.10
2019-02-16T08:08:23.788Z,380.33
2019-02-16T08:11:00.627Z,356.77
2019-02-16T08:13:37.644Z,381.13
2019-02-16T08:16:21.448Z,391.17
2019-02-16T08:19:17.502Z,363.30
2019-02-16T08:22:03.226Z,396.03
2019-02-16T08:24:41.543Z,375.70
2019-02-16T08:27:36.140Z,406.73
2019-02-16T08:30:22.663Z,404.77
2019-02-16T08:33:05.626Z,380.83
2019-02-16T08:35:40.928Z,384.13
2019-02-16T08:38:22.328Z,406.13
2019-02-16T08:41:12.518Z,404.40
2019-02-16T08:43:49.723Z,378.40
2019-02-16T08:46:35.757Z,372.13
2019-02-16T08:49:16.205Z,361.27
2019-02-16T08:51:57.567Z,387.37
2019-02-16T08:54:38.088Z,361.30
2019-02-16T08:57:21.569Z,386.90
2019-02-16T09:00:07.421Z,341.47
2019-02-16T09:02:41.250Z,336.60
2019-02-16T09:05:28.610Z,353.07
2019-02-16T09:08:19.730Z,336.00
2019-02-16T09:10:58.038Z,334.20
2019-02-16T09:13:31.632Z,353.30
2019-02-16T09:16:19.093Z,352.80
2019-02-16T09:19:01.721Z,340.27
2019-02-16T09:21:58.072Z,381.07
2019-02-16T09:24:45.275Z,367.60
2019-02-16T09:27:44.740Z,365.60
2019-02-16T09:30:30.862Z,338.57
2019-02-16T09:33:17.160Z,351.10
2019-02-16T09:36:04.571Z,346.63
2019-02-16T09:38:38.964Z,323.50
2019-02-16T09:41:25.950Z,363.27
2019-02-16T09:44:25.525Z,341.80
2019-02-16T09:46:58.448Z,378.97
2019-02-16T09:49:34.856Z,392.87
2019-02-16T09:52:23.140Z,375.23
2019-02-16T09:55:09.493Z,399.37
2019-02-16T09:57:51.208Z,337.97
2019-02-16T10:00:56.639Z,365.83
2019-02-16T10:03:33.124Z,340.40
2019-02-16T10:06:19.431Z,326.10
2019-02-16T10:08:58.695Z,354.47
2019-02-16T10:11:43.544Z,372.00
2019-02-16T10:14:29.618Z,325.53
2019-02-16T10:17:28.407Z,398.53
2019-02-16T10:20:21.233Z,321.90
2019-02-16T10:23:10.179Z,357.97
2019-02-16T10:26:06.324Z,338.83
2019-02-16T10:28:41.629Z,329.83
2019-02-16T10:31:16.107Z,347.47
2019-02-16T10:34:08.559Z,342.63
2019-02-16T10:37:01.654Z,367.20
2019-02-16T10:39:53.018Z,327.17
2019-02-16T10:42:28.068Z,398.43
2019-02-16T10:45:01.637Z,350.40
2019-02-16T10:47:43.589Z,343.97
2019-02-16T10:50:29.732Z,327.07
2019-02-16T10:53:08.819Z,365.93
2019-02-16T10:55:53.007Z,324.80
2019-02-16T10:58:43.390Z,340.83
2019-02-16T11:01:33.646Z,326.47
2019-02-16T11:04:26.387Z,303.27
2019-02-16T11:07:10.341Z,353.60
2019-02-16T11:09:47.543Z,335.93
2019-02-16T11:12:34.988Z,349.83
2019-02-16T11:15:30.463Z,294.13
2019-02-16T11:18:18.039Z,344.87
2019-02-16T11:21:02.595Z,305.27
2019-02-16T11:23:37.971Z,312.40
2019-02-16T11:26:25.256Z,291.30
2019-02-16T11:29:01.932Z,296.07
2019-02-16T11:31:43.726Z,343.17
2019-02-16T11:34:37.008Z,316.37
2019-02-16T11:37:30.436Z,349.23
2019-02-16T11:40:08.460Z,336.37
2019-02-16T11:42:47.274Z,288.07
2019-02-16T11:45:50.766Z,295.83
2019-02-16T11:48:29.091Z,293.93
2019-02-16T11:51:17.485Z,305.57
2019-02-16T11:53:52.080Z,344.50
2019-02-16T11:56:41.956Z,352.03
2019-02-16T11:59:35.825Z,288.33
2019-02-16T12:02:21.047Z,330.47
2019-02-16T12:04:53.028Z,309.70
2019-02-16T12:07:40.050Z,338.97
2019-02-16T12:10:30.224Z,313.93
2019-02-16T12:13:29.809Z,298.97
2019-02-16T12:16:23.780Z,302.83
2019-02-16T12:19:11.869Z,297.47
2019-02-16T12:21:53.843Z,323.17
2019-02-16T12:24:44.538Z,311.53
2019-02-16T12:27:30.436Z,327.77
2019-02-16T12:30:26.941Z,294.60
2019-02-16T12:33:23.461Z,304.50
2019-02-16T12:36:23.514Z,300.47
2019-02-16T12:39:08.068Z,343.47
2019-02-16T12:41:58.355Z,334.63
2019-02-16T12:44:36.151Z,310.87
2019-02-16T12:47:26.418Z,329.77
2019-02-16T12:50:29.349Z,303.30
2019-02-16T12:53:16.999Z,316.80
2019-02-16T12:55:57.864Z,325.23
2019-02-16T12:58:36.495Z,318.63
2019-02-16T13:01:11.018Z,323.53
2019-02-16T13:04:08.435Z,308.13
2019-02-16T13:06:46.811Z,364.47
2019-02-16T13:09:32.726Z,306.27
2019-02-16T13:12:09.483Z,332.20
2019-02-16T13:15:12.197Z,302.83
2019-02-16T13:17:54.410Z,303.67
2019-02-16T13:20:44.814Z,307.83
2019-02-16T13:23:31.935Z,337.43
2019-02-16T13:26:10.858Z,308.27
2019-02-16T13:28:50.157Z,278.93
2019-02-16T13:31:43.257Z,325.43
2019-02-16T13:34:39.477Z,317.20
2019-02-16T13:37:34.452Z,393.87
2019-02-16T13:40:22.983Z,315.60
2019-02-16T13:43:23.987Z,312.00
2019-02-16T13:46:02.034Z,185.37
2019-02-16T13:48:36.990Z,303.63
2019-02-16T13:51:18.816Z,292.93
2019-02-16T13:54:05.460Z,291.60
2019-02-16T13:56:57.850Z,340.43
2019-02-16T13:59:43.695Z,306.40
2019-02-16T14:02:36.970Z,354.30
2019-02-16T14:05:17.846Z,324.17
2019-02-16T14:07:56.024Z,338.70
2019-02-16T14:10:43.612Z,298.47
2019-02-16T14:13:30.825Z,308.87
2019-02-16T14:16:09.270Z,298.43
2019-02-16T14:18:36.920Z,322.03
2019-02-16T14:21:04.683Z,304.97
2019-02-16T14:23:32.442Z,298.57
2019-02-16T14:26:00.100Z,309.27
2019-02-16T14:28:27.994Z,299.23
2019-02-16T14:30:55.512Z,318.50
2019-02-16T14:33:23.094Z,330.83
2019-02-16T14:35:50.887Z,337.83
2019-02-16T14:38:38.661Z,319.20
2019-02-16T14:41:06.359Z,348.53
2019-02-16T14:43:34.176Z,304.53
2019-02-16T14:46:01.861Z,311.33
2019-02-16T14:48:29.492Z,317.93
2019-02-16T14:50:57.204Z,338.03
2019-02-16T14:53:25.791Z,309.37
2019-02-16T14:55:54.485Z,301.43
2019-02-16T14:58:23.585Z,323.63
2019-02-16T15:00:51.181Z,358.77
2019-02-16T15:03:19.231Z,308.43
2019-02-16T15:05:48.328Z,326.00
2019-02-16T15:08:16.796Z,327.53
2019-02-16T15:10:48.141Z,334.80
2019-02-16T15:13:17.002Z,331.43
2019-02-16T15:15:46.981Z,316.73
2019-02-16T15:18:14.443Z,314.30
2019-02-16T15:20:44.767Z,332.60
2019-02-16T15:23:14.123Z,330.73
2019-02-16T15:25:41.933Z,322.50
2019-02-16T15:28:09.847Z,361.20
2019-02-16T15:30:37.621Z,319.27
2019-02-16T15:33:05.328Z,312.47
2019-02-16T15:35:33.166Z,310.00
2019-02-16T15:38:01.876Z,341.77
2019-02-16T15:40:30.703Z,347.90
2019-02-16T15:42:58.575Z,344.30
2019-02-16T15:45:26.261Z,345.63
2019-02-16T15:47:55.281Z,334.60
2019-02-16T15:50:23.054Z,333.37
2019-02-16T15:52:51.150Z,329.60
2019-02-16T15:55:18.678Z,346.83
2019-02-16T15:57:46.077Z,332.53
2019-02-16T16:00:22.336Z,322.67
2019-02-16T16:02:50.529Z,330.30
2019-02-16T16:05:18.303Z,361.67
2019-02-16T16:07:51.157Z,328.00
2019-02-16T16:10:28.940Z,367.43
2019-02-16T16:13:14.666Z,325.20
2019-02-16T16:15:56.773Z,375.97
2019-02-16T16:18:31.431Z,323.67
2019-02-16T16:21:14.711Z,354.73
2019-02-16T16:24:34.365Z,316.17
2019-02-16T16:27:13.132Z,335.37
2019-02-16T16:29:57.853Z,292.40
2019-02-16T16:32:50.973Z,315.07
2019-02-16T16:35:38.328Z,326.97
2019-02-16T16:38:28.409Z,300.73
2019-02-16T16:41:21.378Z,330.93
2019-02-16T16:43:58.463Z,301.87
2019-02-16T16:46:45.071Z,352.87
2019-02-16T16:49:32.421Z,320.80
2019-02-16T16:52:18.174Z,345.20
2019-02-16T16:54:53.721Z,321.73
2019-02-16T16:57:35.497Z,312.17
2019-02-16T17:00:21.797Z,302.73
2019-02-16T17:03:03.178Z,317.03
2019-02-16T17:05:41.910Z,323.63
2019-02-16T17:08:17.107Z,322.80
2019-02-16T17:10:49.758Z,310.10
2019-02-16T17:13:43.203Z,310.07
2019-02-16T17:16:34.248Z,326.80
2019-02-16T17:19:10.189Z,342.60
2019-02-16T17:21:49.720Z,332.13
2019-02-16T17:24:45.732Z,308.30
2019-02-16T17:27:32.741Z,350.23
2019-02-16T17:30:06.034Z,349.70
2019-02-16T17:32:44.768Z,334.80
2019-02-16T17:35:37.884Z,378.47
2019-02-16T17:38:37.428Z,330.57
2019-02-16T17:41:20.248Z,334.87
2019-02-16T17:44:11.265Z,344.73
2019-02-16T17:46:57.315Z,356.47
2019-02-16T17:49:44.486Z,367.97
2019-02-16T17:52:20.826Z,332.43
2019-02-16T17:54:57.331Z,350.70
2019-02-16T17:57:35.737Z,329.30
2019-02-16T18:00:13.547Z,348.10
2019-02-16T18:02:59.127Z,336.40
2019-02-16T18:05:45.458Z,350.53
2019-02-16T18:08:31.829Z,319.27
2019-02-16T18:11:23.257Z,320.53
2019-02-16T18:14:17.342Z,345.67
2019-02-16T18:17:08.156Z,368.43
2019-02-16T18:20:02.836Z,320.00
2019-02-16T18:22:52.223Z,430.83
2019-02-16T18:25:28.223Z,338.70
2019-02-16T18:28:16.282Z,361.90
2019-02-16T18:31:01.702Z,349.83
2019-02-16T18:33:55.163Z,350.83
2019-02-16T18:36:34.437Z,377.87
2019-02-16T18:39:15.747Z,355.43
2019-02-16T18:42:11.940Z,392.93
2019-02-16T18:44:46.358Z,347.70
2019-02-16T18:47:35.688Z,373.57
2019-02-16T18:50:12.746Z,315.70
2019-02-16T18:53:04.131Z,356.00
2019-02-16T18:56:00.357Z,339.30
2019-02-16T18:58:47.268Z,348.83
2019-02-16T19:01:25.418Z,366.77
2019-02-16T19:04:15.156Z,346.23
2019-02-16T19:07:09.091Z,375.80
2019-02-16T19:09:55.439Z,343.13
2019-02-16T19:12:33.464Z,380.60
2019-02-16T19:15:13.222Z,352.80
2019-02-16T19:18:00.452Z,364.20
2019-02-16T19:20:38.882Z,373.97
2019-02-16T19:23:24.935Z,400.80
2019-02-16T19:26:04.526Z,396.90
2019-02-16T19:29:12.836Z,380.57
2019-02-16T19:32:00.078Z,445.27
2019-02-16T19:34:36.758Z,405.50
2019-02-16T19:37:27.369Z,456.23
2019-02-16T19:40:17.722Z,411.80
2019-02-16T19:43:11.797Z,402.63
2019-02-16T19:46:08.197Z,415.53
2019-02-16T19:48:45.256Z,437.73
2019-02-16T19:51:35.525Z,459.90
2019-02-16T19:54:23.103Z,443.03
2019-02-16T19:57:00.386Z,458.30
2019-02-16T19:59:46.979Z,422.47
2019-02-16T20:02:43.544Z,450.50
2019-02-16T20:05:30.847Z,413.57
2019-02-16T20:08:14.914Z,445.63
2019-02-16T20:10:52.431Z,471.37
2019-02-16T20:13:37.077Z,450.57
2019-02-16T20:16:11.703Z,456.77
2019-02-16T20:18:57.471Z,437.50
2019-02-16T20:21:44.656Z,480.83
2019-02-16T20:24:34.512Z,449.07
2019-02-16T20:27:21.781Z,462.43
2019-02-16T20:29:59.965Z,469.53
2019-02-16T20:32:57.718Z,482.10
2019-02-16T20:35:50.786Z,460.00
2019-02-16T20:38:26.554Z,456.23
2019-02-16T20:41:11.869Z,445.57
2019-02-16T20:43:57.876Z,463.07
2019-02-16T20:46:40.111Z,487.87
2019-02-16T20:49:27.973Z,469.67
2019-02-16T20:52:03.500Z,491.33
2019-02-16T20:55:06.050Z,468.10
2019-02-16T20:57:48.489Z,468.37
2019-02-16T21:00:39.422Z,482.87
2019-02-16T21:03:34.112Z,463.60
2019-02-16T21:06:11.813Z,465.43
2019-02-16T21:08:56.877Z,456.47
2019-02-16T21:11:33.708Z,470.67
2019-02-16T21:14:12.574Z,445.50
2019-02-16T21:16:54.547Z,481.33
2019-02-16T21:19:42.439Z,460.17
2019-02-16T21:22:29.719Z,482.33
2019-02-16T21:25:04.803Z,472.03
2019-02-16T21:27:40.098Z,464.27
2019-02-16T21:30:26.621Z,438.37
2019-02-16T21:33:03.329Z,447.93
2019-02-16T21:35:50.534Z,473.63
2019-02-16T21:38:41.085Z,465.87
2019-02-16T21:41:31.046Z,471.50
2019-02-16T21:44:18.431Z,505.03
2019-02-16T21:47:04.263Z,541.47
2019-02-16T21:49:40.382Z,526.27
2019-02-16T21:52:30.099Z,512.07
2019-02-16T21:55:03.394Z,496.87
2019-02-16T21:58:07.847Z,493.00
2019-02-16T22:00:48.075Z,502.43
2019-02-16T22:03:23.649Z,475.90
2019-02-16T22:06:07.267Z,480.53
2019-02-16T22:08:42.130Z,470.50
2019-02-16T22:11:28.396Z,484.53
2019-02-16T22:13:56.095Z,483.30
2019-02-16T22:16:23.497Z,497.53
2019-02-16T22:18:52.082Z,480.30
2019-02-16T22:21:19.638Z,545.03
2019-02-16T22:23:47.430Z,524.80
2019-02-16T22:26:14.790Z,520.40
2019-02-16T22:28:42.444Z,491.93
2019-02-16T22:31:10.262Z,522.10
2019-02-16T22:33:37.797Z,523.37
2019-02-16T22:36:05.411Z,508.00
2019-02-16T22:38:33.138Z,492.93
2019-02-16T22:41:00.705Z,509.57
2019-02-16T22:43:28.430Z,540.87
2019-02-16T22:45:56.375Z,549.53
2019-02-16T22:48:23.997Z,540.07
2019-02-16T22:50:51.492Z,544.60
2019-02-16T22:53:19.050Z,542.07
2019-02-16T22:55:47.189Z,551.70
2019-02-16T22:58:15.226Z,549.33
2019-02-16T23:00:47.942Z,556.00
2019-02-16T23:03:17.542Z,543.80
2019-02-16T23:05:45.418Z,538.30
2019-02-16T23:08:13.046Z,545.60
2019-02-16T23:10:40.869Z,527.37
2019-02-16T23:13:08.935Z,528.80
2019-02-16T23:15:36.381Z,520.83
2019-02-16T23:18:04.110Z,557.63
2019-02-16T23:20:31.746Z,518.47
2019-02-16T23:22:59.474Z,536.33
2019-02-16T23:25:27.000Z,544.03
2019-02-16T23:27:54.566Z,537.73
2019-02-16T23:30:22.126Z,530.27
2019-02-16T23:32:49.631Z,557.13
2019-02-16T23:35:17.281Z,565.03
2019-02-16T23:37:44.936Z,529.17
2019-02-16T23:40:14.122Z,531.13
2019-02-16T23:42:41.632Z,531.90
2019-02-16T23:45:09.389Z,523.53
2019-02-16T23:47:38.248Z,519.23
2019-02-16T23:50:06.691Z,568.13
2019-02-16T23:52:34.248Z,528.27
2019-02-16T23:55:02.069Z,512.03
2019-02-16T23:57:31.041Z,528.40
2019-02-16T23:59:59.561Z,508.40
